sensor_id;sensor_type;location;lat;lon;timestamp;temperature;humidity
1800;DHT22;919;48.274;12.292;2024-03-08T00:01:14;1.10;99.90
1800;DHT22;919;48.274;12.292;2024-03-08T00:03:43;1.20;99.90
1800;DHT22;919;48.274;12.292;2024-03-08T00:06:10;1.30;99.90
1800;DHT22;919;48.274;12.292;2024-03-08T00:08:36;1.30;99.90
1800;DHT22;919;48.274;12.292;2024-03-08T00:11:03;1.30;99.90
1800;DHT22;919;48.274;12.292;2024-03-08T00:13:30;1.30;99.90
1800;DHT22;919;48.274;12.292;2024-03-08T00:15:57;1.30;99.90
1800;DHT22;919;48.274;12.292;2024-03-08T00:18:24;1.30;99.90
1800;DHT22;919;48.274;12.292;2024-03-08T00:20:52;1.30;99.90
1800;DHT22;919;48.274;12.292;2024-03-08T00:23:18;1.30;99.90
1800;DHT22;919;48.274;12.292;2024-03-08T00:25:45;1.20;99.90
1800;DHT22;919;48.274;12.292;2024-03-08T00:28:12;1.20;99.90
1800;DHT22;919;48.274;12.292;2024-03-08T00:30:40;1.20;99.90
1800;DHT22;919;48.274;12.292;2024-03-08T00:33:08;1.20;99.90
1800;DHT22;919;48.274;12.292;2024-03-08T00:35:35;1.20;99.90
1800;DHT22;919;48.274;12.292;2024-03-08T00:38:03;1.10;99.90
1800;DHT22;919;48.274;12.292;2024-03-08T00:40:30;1.10;99.90
1800;DHT22;919;48.274;12.292;2024-03-08T00:42:56;1.10;99.90
1800;DHT22;919;48.274;12.292;2024-03-08T00:45:23;1.10;99.90
1800;DHT22;919;48.274;12.292;2024-03-08T00:47:50;1.10;99.90
1800;DHT22;919;48.274;12.292;2024-03-08T00:50:17;1.10;99.90
1800;DHT22;919;48.274;12.292;2024-03-08T00:52:44;1.10;99.90
1800;DHT22;919;48.274;12.292;2024-03-08T00:55:12;1.00;99.90
1800;DHT22;919;48.274;12.292;2024-03-08T00:57:39;1.10;99.90
1800;DHT22;919;48.274;12.292;2024-03-08T01:00:06;1.10;99.90
1800;DHT22;919;48.274;12.292;2024-03-08T01:02:37;1.00;99.90
1800;DHT22;919;48.274;12.292;2024-03-08T01:05:04;1.00;99.90
1800;DHT22;919;48.274;12.292;2024-03-08T01:07:33;1.00;99.90
1800;DHT22;919;48.274;12.292;2024-03-08T01:09:59;1.00;99.90
1800;DHT22;919;48.274;12.292;2024-03-08T01:12:28;1.00;99.90
1800;DHT22;919;48.274;12.292;2024-03-08T01:14:55;1.00;99.90
1800;DHT22;919;48.274;12.292;2024-03-08T01:17:23;0.90;99.90
1800;DHT22;919;48.274;12.292;2024-03-08T01:19:50;0.90;99.90
1800;DHT22;919;48.274;12.292;2024-03-08T01:22:16;0.90;99.90
1800;DHT22;919;48.274;12.292;2024-03-08T01:24:43;0.80;99.90
1800;DHT22;919;48.274;12.292;2024-03-08T01:27:10;0.80;99.90
1800;DHT22;919;48.274;12.292;2024-03-08T01:29:39;0.80;99.90
1800;DHT22;919;48.274;12.292;2024-03-08T01:32:06;0.80;99.90
1800;DHT22;919;48.274;12.292;2024-03-08T01:34:32;0.70;99.90
1800;DHT22;919;48.274;12.292;2024-03-08T01:36:59;0.70;99.90
1800;DHT22;919;48.274;12.292;2024-03-08T01:39:26;0.70;99.90
1800;DHT22;919;48.274;12.292;2024-03-08T01:41:53;0.60;99.90
1800;DHT22;919;48.274;12.292;2024-03-08T01:44:20;0.50;99.90
1800;DHT22;919;48.274;12.292;2024-03-08T01:46:49;0.50;99.90
1800;DHT22;919;48.274;12.292;2024-03-08T01:49:18;0.50;99.90
1800;DHT22;919;48.274;12.292;2024-03-08T01:51:47;0.50;99.90
1800;DHT22;919;48.274;12.292;2024-03-08T01:54:16;0.50;99.90
1800;DHT22;919;48.274;12.292;2024-03-08T01:56:43;0.50;99.90
1800;DHT22;919;48.274;12.292;2024-03-08T01:59:10;0.40;99.90
1800;DHT22;919;48.274;12.292;2024-03-08T02:01:37;0.40;99.90
1800;DHT22;919;48.274;12.292;2024-03-08T02:04:05;0.40;99.90
1800;DHT22;919;48.274;12.292;2024-03-08T02:06:32;0.30;99.90
1800;DHT22;919;48.274;12.292;2024-03-08T02:08:59;0.30;99.90
1800;DHT22;919;48.274;12.292;2024-03-08T02:11:31;0.30;99.90
1800;DHT22;919;48.274;12.292;2024-03-08T02:13:58;0.20;99.90
1800;DHT22;919;48.274;12.292;2024-03-08T02:16:25;0.20;99.90
1800;DHT22;919;48.274;12.292;2024-03-08T02:18:52;0.20;99.90
1800;DHT22;919;48.274;12.292;2024-03-08T02:21:20;0.20;99.90
1800;DHT22;919;48.274;12.292;2024-03-08T02:23:47;0.20;99.90
1800;DHT22;919;48.274;12.292;2024-03-08T02:26:14;0.20;99.90
1800;DHT22;919;48.274;12.292;2024-03-08T02:28:41;0.20;99.90
1800;DHT22;919;48.274;12.292;2024-03-08T02:31:09;0.40;99.90
1800;DHT22;919;48.274;12.292;2024-03-08T02:33:36;0.50;99.90
1800;DHT22;919;48.274;12.292;2024-03-08T02:36:03;0.60;99.90
1800;DHT22;919;48.274;12.292;2024-03-08T02:38:33;0.70;99.90
1800;DHT22;919;48.274;12.292;2024-03-08T02:40:59;0.70;99.90
1800;DHT22;919;48.274;12.292;2024-03-08T02:43:26;0.80;99.90
1800;DHT22;919;48.274;12.292;2024-03-08T02:45:53;0.90;99.90
1800;DHT22;919;48.274;12.292;2024-03-08T02:48:20;0.90;99.90
1800;DHT22;919;48.274;12.292;2024-03-08T02:50:47;0.90;99.90
1800;DHT22;919;48.274;12.292;2024-03-08T02:53:16;1.00;99.90
1800;DHT22;919;48.274;12.292;2024-03-08T02:55:45;1.00;99.90
1800;DHT22;919;48.274;12.292;2024-03-08T02:58:12;1.00;99.90
1800;DHT22;919;48.274;12.292;2024-03-08T03:00:40;1.10;99.90
1800;DHT22;919;48.274;12.292;2024-03-08T03:03:07;1.00;99.90
1800;DHT22;919;48.274;12.292;2024-03-08T03:05:33;1.00;99.90
1800;DHT22;919;48.274;12.292;2024-03-08T03:08:00;1.00;99.90
1800;DHT22;919;48.274;12.292;2024-03-08T03:10:29;1.00;99.90
1800;DHT22;919;48.274;12.292;2024-03-08T03:12:57;1.00;99.90
1800;DHT22;919;48.274;12.292;2024-03-08T03:15:24;1.00;99.90
1800;DHT22;919;48.274;12.292;2024-03-08T03:17:51;1.00;99.90
1800;DHT22;919;48.274;12.292;2024-03-08T03:20:17;1.00;99.90
1800;DHT22;919;48.274;12.292;2024-03-08T03:22:49;1.00;99.90
1800;DHT22;919;48.274;12.292;2024-03-08T03:25:18;1.00;99.90
1800;DHT22;919;48.274;12.292;2024-03-08T03:27:51;1.00;99.90
1800;DHT22;919;48.274;12.292;2024-03-08T03:30:19;1.00;99.90
1800;DHT22;919;48.274;12.292;2024-03-08T03:32:47;1.00;99.90
1800;DHT22;919;48.274;12.292;2024-03-08T03:35:15;1.00;99.90
1800;DHT22;919;48.274;12.292;2024-03-08T03:37:42;0.90;99.90
1800;DHT22;919;48.274;12.292;2024-03-08T03:40:11;0.90;99.90
1800;DHT22;919;48.274;12.292;2024-03-08T03:42:39;0.90;99.90
1800;DHT22;919;48.274;12.292;2024-03-08T03:45:06;0.90;99.90
1800;DHT22;919;48.274;12.292;2024-03-08T03:47:36;0.90;99.90
1800;DHT22;919;48.274;12.292;2024-03-08T03:50:05;0.90;99.90
1800;DHT22;919;48.274;12.292;2024-03-08T03:52:32;0.90;99.90
1800;DHT22;919;48.274;12.292;2024-03-08T03:54:58;0.90;99.90
1800;DHT22;919;48.274;12.292;2024-03-08T03:57:25;0.90;99.90
1800;DHT22;919;48.274;12.292;2024-03-08T03:59:52;0.90;99.90
1800;DHT22;919;48.274;12.292;2024-03-08T04:02:19;0.90;99.90
1800;DHT22;919;48.274;12.292;2024-03-08T04:04:47;0.90;99.90
1800;DHT22;919;48.274;12.292;2024-03-08T04:07:14;0.80;99.90
1800;DHT22;919;48.274;12.292;2024-03-08T04:09:42;0.80;99.90
1800;DHT22;919;48.274;12.292;2024-03-08T04:12:08;0.80;99.90
1800;DHT22;919;48.274;12.292;2024-03-08T04:14:35;0.80;99.90
1800;DHT22;919;48.274;12.292;2024-03-08T04:17:02;0.80;99.90
1800;DHT22;919;48.274;12.292;2024-03-08T04:19:31;0.80;99.90
1800;DHT22;919;48.274;12.292;2024-03-08T04:22:01;0.80;99.90
1800;DHT22;919;48.274;12.292;2024-03-08T04:24:28;0.80;99.90
1800;DHT22;919;48.274;12.292;2024-03-08T04:26:56;0.80;99.90
1800;DHT22;919;48.274;12.292;2024-03-08T04:29:23;0.80;99.90
1800;DHT22;919;48.274;12.292;2024-03-08T04:31:50;0.70;99.90
1800;DHT22;919;48.274;12.292;2024-03-08T04:34:19;0.70;99.90
1800;DHT22;919;48.274;12.292;2024-03-08T04:36:46;0.70;99.90
1800;DHT22;919;48.274;12.292;2024-03-08T04:39:15;0.70;99.90
1800;DHT22;919;48.274;12.292;2024-03-08T04:41:44;0.70;99.90
1800;DHT22;919;48.274;12.292;2024-03-08T04:44:11;0.70;99.90
1800;DHT22;919;48.274;12.292;2024-03-08T04:46:38;0.70;99.90
1800;DHT22;919;48.274;12.292;2024-03-08T04:49:05;0.60;99.90
1800;DHT22;919;48.274;12.292;2024-03-08T04:51:32;0.60;99.90
1800;DHT22;919;48.274;12.292;2024-03-08T04:53:59;0.60;99.90
1800;DHT22;919;48.274;12.292;2024-03-08T04:56:27;0.60;99.90
1800;DHT22;919;48.274;12.292;2024-03-08T04:58:54;0.60;99.90
1800;DHT22;919;48.274;12.292;2024-03-08T05:01:21;0.60;99.90
1800;DHT22;919;48.274;12.292;2024-03-08T05:03:47;0.50;99.90
1800;DHT22;919;48.274;12.292;2024-03-08T05:06:15;0.50;99.90
1800;DHT22;919;48.274;12.292;2024-03-08T05:08:42;0.40;99.90
1800;DHT22;919;48.274;12.292;2024-03-08T05:11:09;0.40;99.90
1800;DHT22;919;48.274;12.292;2024-03-08T05:13:37;0.40;99.90
1800;DHT22;919;48.274;12.292;2024-03-08T05:16:04;0.40;99.90
1800;DHT22;919;48.274;12.292;2024-03-08T05:18:32;0.40;99.90
1800;DHT22;919;48.274;12.292;2024-03-08T05:20:59;0.40;99.90
1800;DHT22;919;48.274;12.292;2024-03-08T05:23:29;0.40;99.90
1800;DHT22;919;48.274;12.292;2024-03-08T05:25:56;0.40;99.90
1800;DHT22;919;48.274;12.292;2024-03-08T05:28:22;0.40;99.90
1800;DHT22;919;48.274;12.292;2024-03-08T05:30:51;0.30;99.90
1800;DHT22;919;48.274;12.292;2024-03-08T05:33:17;0.30;99.90
1800;DHT22;919;48.274;12.292;2024-03-08T05:35:45;0.30;99.90
1800;DHT22;919;48.274;12.292;2024-03-08T05:38:12;0.30;99.90
1800;DHT22;919;48.274;12.292;2024-03-08T05:40:38;0.30;99.90
1800;DHT22;919;48.274;12.292;2024-03-08T05:43:05;0.30;99.90
1800;DHT22;919;48.274;12.292;2024-03-08T05:45:32;0.30;99.90
1800;DHT22;919;48.274;12.292;2024-03-08T05:48:01;0.30;99.90
1800;DHT22;919;48.274;12.292;2024-03-08T05:50:27;0.20;99.90
1800;DHT22;919;48.274;12.292;2024-03-08T05:52:54;0.20;99.90
1800;DHT22;919;48.274;12.292;2024-03-08T05:55:21;0.30;99.90
1800;DHT22;919;48.274;12.292;2024-03-08T05:57:50;0.30;99.90
1800;DHT22;919;48.274;12.292;2024-03-08T06:00:19;0.40;99.90
1800;DHT22;919;48.274;12.292;2024-03-08T06:02:47;0.40;99.90
1800;DHT22;919;48.274;12.292;2024-03-08T06:05:15;0.40;99.90
1800;DHT22;919;48.274;12.292;2024-03-08T06:07:42;0.40;99.90
1800;DHT22;919;48.274;12.292;2024-03-08T06:10:09;0.40;99.90
1800;DHT22;919;48.274;12.292;2024-03-08T06:12:38;0.50;99.90
1800;DHT22;919;48.274;12.292;2024-03-08T06:15:06;0.50;99.90
1800;DHT22;919;48.274;12.292;2024-03-08T06:17:34;0.50;99.90
1800;DHT22;919;48.274;12.292;2024-03-08T06:20:01;0.50;99.90
1800;DHT22;919;48.274;12.292;2024-03-08T06:22:30;0.60;99.90
1800;DHT22;919;48.274;12.292;2024-03-08T06:24:57;0.60;99.90
1800;DHT22;919;48.274;12.292;2024-03-08T06:27:23;0.60;99.90
1800;DHT22;919;48.274;12.292;2024-03-08T06:29:50;0.70;99.90
1800;DHT22;919;48.274;12.292;2024-03-08T06:32:17;0.70;99.90
1800;DHT22;919;48.274;12.292;2024-03-08T06:34:44;0.80;99.90
1800;DHT22;919;48.274;12.292;2024-03-08T06:37:11;0.70;99.90
1800;DHT22;919;48.274;12.292;2024-03-08T06:39:39;0.80;99.90
1800;DHT22;919;48.274;12.292;2024-03-08T06:42:06;0.90;99.90
1800;DHT22;919;48.274;12.292;2024-03-08T06:44:34;0.90;99.90
1800;DHT22;919;48.274;12.292;2024-03-08T06:47:01;0.90;99.90
1800;DHT22;919;48.274;12.292;2024-03-08T06:49:28;1.00;99.90
1800;DHT22;919;48.274;12.292;2024-03-08T06:51:55;1.00;99.90
1800;DHT22;919;48.274;12.292;2024-03-08T06:54:22;1.10;99.90
1800;DHT22;919;48.274;12.292;2024-03-08T06:56:51;1.10;99.90
1800;DHT22;919;48.274;12.292;2024-03-08T06:59:18;1.20;99.90
1800;DHT22;919;48.274;12.292;2024-03-08T07:01:45;1.20;99.90
1800;DHT22;919;48.274;12.292;2024-03-08T07:04:12;1.30;99.90
1800;DHT22;919;48.274;12.292;2024-03-08T07:06:39;1.30;99.90
1800;DHT22;919;48.274;12.292;2024-03-08T07:09:06;1.40;99.90
1800;DHT22;919;48.274;12.292;2024-03-08T07:11:33;1.40;99.90
1800;DHT22;919;48.274;12.292;2024-03-08T07:14:01;1.40;99.90
1800;DHT22;919;48.274;12.292;2024-03-08T07:16:31;1.50;99.90
1800;DHT22;919;48.274;12.292;2024-03-08T07:18:57;1.50;99.90
1800;DHT22;919;48.274;12.292;2024-03-08T07:21:24;1.60;99.90
1800;DHT22;919;48.274;12.292;2024-03-08T07:23:51;1.60;99.90
1800;DHT22;919;48.274;12.292;2024-03-08T07:26:39;1.60;99.90
1800;DHT22;919;48.274;12.292;2024-03-08T07:29:07;1.70;99.90
1800;DHT22;919;48.274;12.292;2024-03-08T07:31:34;1.80;99.90
1800;DHT22;919;48.274;12.292;2024-03-08T07:34:15;1.90;99.90
1800;DHT22;919;48.274;12.292;2024-03-08T07:36:42;2.00;99.90
1800;DHT22;919;48.274;12.292;2024-03-08T07:39:09;2.00;99.90
1800;DHT22;919;48.274;12.292;2024-03-08T07:41:37;2.00;99.90
1800;DHT22;919;48.274;12.292;2024-03-08T07:44:07;2.10;99.90
1800;DHT22;919;48.274;12.292;2024-03-08T07:46:34;2.10;99.90
1800;DHT22;919;48.274;12.292;2024-03-08T07:49:02;2.10;99.90
1800;DHT22;919;48.274;12.292;2024-03-08T07:51:29;2.20;99.90
1800;DHT22;919;48.274;12.292;2024-03-08T07:53:56;2.10;99.90
1800;DHT22;919;48.274;12.292;2024-03-08T07:56:22;2.30;99.90
1800;DHT22;919;48.274;12.292;2024-03-08T07:58:50;2.40;99.90
1800;DHT22;919;48.274;12.292;2024-03-08T08:01:20;2.50;99.90
1800;DHT22;919;48.274;12.292;2024-03-08T08:03:47;2.50;99.90
1800;DHT22;919;48.274;12.292;2024-03-08T08:06:15;2.50;99.90
1800;DHT22;919;48.274;12.292;2024-03-08T08:08:42;2.40;99.90
1800;DHT22;919;48.274;12.292;2024-03-08T08:11:09;2.50;99.90
1800;DHT22;919;48.274;12.292;2024-03-08T08:13:37;2.50;99.90
1800;DHT22;919;48.274;12.292;2024-03-08T08:16:05;2.50;99.90
1800;DHT22;919;48.274;12.292;2024-03-08T08:18:33;2.60;99.90
1800;DHT22;919;48.274;12.292;2024-03-08T08:21:01;2.70;99.90
1800;DHT22;919;48.274;12.292;2024-03-08T08:23:28;2.80;99.90
1800;DHT22;919;48.274;12.292;2024-03-08T08:25:55;2.90;99.90
1800;DHT22;919;48.274;12.292;2024-03-08T08:28:22;3.00;99.90
1800;DHT22;919;48.274;12.292;2024-03-08T08:30:50;3.20;99.90
1800;DHT22;919;48.274;12.292;2024-03-08T08:33:17;3.30;99.90
1800;DHT22;919;48.274;12.292;2024-03-08T08:35:46;3.40;99.90
1800;DHT22;919;48.274;12.292;2024-03-08T08:38:15;3.60;99.90
1800;DHT22;919;48.274;12.292;2024-03-08T08:40:43;3.60;99.90
1800;DHT22;919;48.274;12.292;2024-03-08T08:43:10;3.60;99.90
1800;DHT22;919;48.274;12.292;2024-03-08T08:45:37;3.70;99.90
1800;DHT22;919;48.274;12.292;2024-03-08T08:48:05;3.80;99.90
1800;DHT22;919;48.274;12.292;2024-03-08T08:50:36;3.70;99.90
1800;DHT22;919;48.274;12.292;2024-03-08T08:53:05;3.80;99.90
1800;DHT22;919;48.274;12.292;2024-03-08T08:55:34;3.90;99.90
1800;DHT22;919;48.274;12.292;2024-03-08T08:58:01;3.80;99.90
1800;DHT22;919;48.274;12.292;2024-03-08T09:00:29;3.70;99.90
1800;DHT22;919;48.274;12.292;2024-03-08T09:02:58;3.60;99.90
1800;DHT22;919;48.274;12.292;2024-03-08T09:05:25;3.90;99.90
1800;DHT22;919;48.274;12.292;2024-03-08T09:07:52;4.00;99.90
1800;DHT22;919;48.274;12.292;2024-03-08T09:10:21;4.10;99.90
1800;DHT22;919;48.274;12.292;2024-03-08T09:12:49;4.20;99.90
1800;DHT22;919;48.274;12.292;2024-03-08T09:15:15;4.30;99.90
1800;DHT22;919;48.274;12.292;2024-03-08T09:17:47;4.40;99.90
1800;DHT22;919;48.274;12.292;2024-03-08T09:20:14;4.40;99.90
1800;DHT22;919;48.274;12.292;2024-03-08T09:22:43;4.50;99.90
1800;DHT22;919;48.274;12.292;2024-03-08T09:25:11;4.40;99.90
1800;DHT22;919;48.274;12.292;2024-03-08T09:27:39;4.60;99.90
1800;DHT22;919;48.274;12.292;2024-03-08T09:30:07;4.70;99.90
1800;DHT22;919;48.274;12.292;2024-03-08T09:32:36;4.70;99.90
1800;DHT22;919;48.274;12.292;2024-03-08T09:35:04;4.80;99.90
1800;DHT22;919;48.274;12.292;2024-03-08T09:37:33;4.90;99.90
1800;DHT22;919;48.274;12.292;2024-03-08T09:40:00;4.90;99.90
1800;DHT22;919;48.274;12.292;2024-03-08T09:42:30;4.90;99.90
1800;DHT22;919;48.274;12.292;2024-03-08T09:45:00;5.10;99.90
1800;DHT22;919;48.274;12.292;2024-03-08T09:47:28;5.20;99.90
1800;DHT22;919;48.274;12.292;2024-03-08T09:49:59;5.40;99.90
1800;DHT22;919;48.274;12.292;2024-03-08T09:52:27;5.50;99.90
1800;DHT22;919;48.274;12.292;2024-03-08T09:54:56;5.60;99.90
1800;DHT22;919;48.274;12.292;2024-03-08T09:57:25;5.70;99.90
1800;DHT22;919;48.274;12.292;2024-03-08T09:59:53;5.90;99.90
1800;DHT22;919;48.274;12.292;2024-03-08T10:02:22;5.90;99.90
1800;DHT22;919;48.274;12.292;2024-03-08T10:04:52;6.00;99.90
1800;DHT22;919;48.274;12.292;2024-03-08T10:07:21;6.00;99.90
1800;DHT22;919;48.274;12.292;2024-03-08T10:09:52;6.10;99.90
1800;DHT22;919;48.274;12.292;2024-03-08T10:12:19;6.30;99.90
1800;DHT22;919;48.274;12.292;2024-03-08T10:14:47;6.30;99.90
1800;DHT22;919;48.274;12.292;2024-03-08T10:17:14;6.10;99.90
1800;DHT22;919;48.274;12.292;2024-03-08T10:19:51;6.20;99.90
1800;DHT22;919;48.274;12.292;2024-03-08T10:22:18;6.30;99.90
1800;DHT22;919;48.274;12.292;2024-03-08T10:24:46;6.30;99.90
1800;DHT22;919;48.274;12.292;2024-03-08T10:27:16;6.40;99.90
1800;DHT22;919;48.274;12.292;2024-03-08T10:29:47;6.40;99.90
1800;DHT22;919;48.274;12.292;2024-03-08T10:32:14;6.40;99.90
1800;DHT22;919;48.274;12.292;2024-03-08T10:34:41;6.60;99.90
1800;DHT22;919;48.274;12.292;2024-03-08T10:37:14;6.70;99.90
1800;DHT22;919;48.274;12.292;2024-03-08T10:39:48;6.90;99.90
1800;DHT22;919;48.274;12.292;2024-03-08T10:42:23;7.00;99.90
1800;DHT22;919;48.274;12.292;2024-03-08T10:44:58;7.00;99.90
1800;DHT22;919;48.274;12.292;2024-03-08T10:47:30;7.00;99.90
1800;DHT22;919;48.274;12.292;2024-03-08T10:50:05;7.20;99.90
1800;DHT22;919;48.274;12.292;2024-03-08T10:52:38;7.30;99.90
1800;DHT22;919;48.274;12.292;2024-03-08T10:55:05;7.40;99.90
1800;DHT22;919;48.274;12.292;2024-03-08T10:57:43;7.40;99.90
1800;DHT22;919;48.274;12.292;2024-03-08T11:00:12;7.50;99.90
1800;DHT22;919;48.274;12.292;2024-03-08T11:02:43;7.70;99.90
1800;DHT22;919;48.274;12.292;2024-03-08T11:05:11;7.70;99.90
1800;DHT22;919;48.274;12.292;2024-03-08T11:07:44;7.80;99.90
1800;DHT22;919;48.274;12.292;2024-03-08T11:10:20;7.70;99.90
1800;DHT22;919;48.274;12.292;2024-03-08T11:12:48;7.70;99.90
1800;DHT22;919;48.274;12.292;2024-03-08T11:15:15;7.60;99.90
1800;DHT22;919;48.274;12.292;2024-03-08T11:17:48;7.80;99.90
1800;DHT22;919;48.274;12.292;2024-03-08T11:20:16;7.80;99.90
1800;DHT22;919;48.274;12.292;2024-03-08T11:22:52;8.00;99.90
1800;DHT22;919;48.274;12.292;2024-03-08T11:25:33;8.00;99.90
1800;DHT22;919;48.274;12.292;2024-03-08T11:28:11;8.00;99.90
1800;DHT22;919;48.274;12.292;2024-03-08T11:30:43;8.10;99.90
1800;DHT22;919;48.274;12.292;2024-03-08T11:33:12;8.20;99.90
1800;DHT22;919;48.274;12.292;2024-03-08T11:35:40;8.20;99.90
1800;DHT22;919;48.274;12.292;2024-03-08T11:38:15;8.30;99.90
1800;DHT22;919;48.274;12.292;2024-03-08T11:40:42;8.40;99.90
1800;DHT22;919;48.274;12.292;2024-03-08T11:43:09;8.40;99.90
1800;DHT22;919;48.274;12.292;2024-03-08T11:45:36;8.30;99.90
1800;DHT22;919;48.274;12.292;2024-03-08T11:48:08;8.30;99.90
1800;DHT22;919;48.274;12.292;2024-03-08T11:50:38;8.50;99.90
1800;DHT22;919;48.274;12.292;2024-03-08T11:53:05;8.70;99.90
1800;DHT22;919;48.274;12.292;2024-03-08T11:55:35;8.70;99.90
1800;DHT22;919;48.274;12.292;2024-03-08T11:58:04;8.70;99.90
1800;DHT22;919;48.274;12.292;2024-03-08T12:00:34;8.80;99.90
1800;DHT22;919;48.274;12.292;2024-03-08T12:03:05;8.80;99.90
1800;DHT22;919;48.274;12.292;2024-03-08T12:05:35;8.90;99.90
1800;DHT22;919;48.274;12.292;2024-03-08T12:08:05;9.00;99.90
1800;DHT22;919;48.274;12.292;2024-03-08T12:10:34;9.10;99.90
1800;DHT22;919;48.274;12.292;2024-03-08T12:13:01;9.10;99.90
1800;DHT22;919;48.274;12.292;2024-03-08T12:15:29;9.00;99.90
1800;DHT22;919;48.274;12.292;2024-03-08T12:17:59;9.00;99.90
1800;DHT22;919;48.274;12.292;2024-03-08T12:20:28;9.00;99.90
1800;DHT22;919;48.274;12.292;2024-03-08T12:22:57;9.20;99.90
1800;DHT22;919;48.274;12.292;2024-03-08T12:25:26;9.40;99.90
1800;DHT22;919;48.274;12.292;2024-03-08T12:27:55;9.30;99.90
1800;DHT22;919;48.274;12.292;2024-03-08T12:30:25;9.40;99.90
1800;DHT22;919;48.274;12.292;2024-03-08T12:32:54;9.30;99.90
1800;DHT22;919;48.274;12.292;2024-03-08T12:35:24;9.30;99.90
1800;DHT22;919;48.274;12.292;2024-03-08T12:37:53;9.40;99.90
1800;DHT22;919;48.274;12.292;2024-03-08T12:40:26;9.50;99.90
1800;DHT22;919;48.274;12.292;2024-03-08T12:42:55;9.50;99.90
1800;DHT22;919;48.274;12.292;2024-03-08T12:45:23;9.50;99.90
1800;DHT22;919;48.274;12.292;2024-03-08T12:47:53;9.40;99.90
1800;DHT22;919;48.274;12.292;2024-03-08T12:50:21;9.50;99.90
1800;DHT22;919;48.274;12.292;2024-03-08T12:52:49;9.60;99.90
1800;DHT22;919;48.274;12.292;2024-03-08T12:55:16;9.60;99.90
1800;DHT22;919;48.274;12.292;2024-03-08T12:57:44;9.60;99.90
1800;DHT22;919;48.274;12.292;2024-03-08T13:00:16;9.50;99.90
1800;DHT22;919;48.274;12.292;2024-03-08T13:02:46;9.50;99.90
1800;DHT22;919;48.274;12.292;2024-03-08T13:05:13;9.70;99.90
1800;DHT22;919;48.274;12.292;2024-03-08T13:07:41;9.60;99.90
1800;DHT22;919;48.274;12.292;2024-03-08T13:10:12;9.70;99.90
1800;DHT22;919;48.274;12.292;2024-03-08T13:12:41;9.70;99.90
1800;DHT22;919;48.274;12.292;2024-03-08T13:15:09;9.50;99.90
1800;DHT22;919;48.274;12.292;2024-03-08T13:17:39;9.50;99.90
1800;DHT22;919;48.274;12.292;2024-03-08T13:20:08;9.30;99.90
1800;DHT22;919;48.274;12.292;2024-03-08T13:22:42;9.40;99.90
1800;DHT22;919;48.274;12.292;2024-03-08T13:25:12;9.50;99.90
1800;DHT22;919;48.274;12.292;2024-03-08T13:27:41;9.60;99.90
1800;DHT22;919;48.274;12.292;2024-03-08T13:30:09;9.70;99.90
1800;DHT22;919;48.274;12.292;2024-03-08T13:32:41;9.70;99.90
1800;DHT22;919;48.274;12.292;2024-03-08T13:35:09;9.80;99.90
1800;DHT22;919;48.274;12.292;2024-03-08T13:37:39;10.00;99.90
1800;DHT22;919;48.274;12.292;2024-03-08T13:40:07;10.00;99.90
1800;DHT22;919;48.274;12.292;2024-03-08T13:42:39;9.90;99.90
1800;DHT22;919;48.274;12.292;2024-03-08T13:45:08;10.00;99.90
1800;DHT22;919;48.274;12.292;2024-03-08T13:47:36;10.10;99.90
1800;DHT22;919;48.274;12.292;2024-03-08T13:50:08;10.20;99.90
1800;DHT22;919;48.274;12.292;2024-03-08T13:52:38;10.10;99.90
1800;DHT22;919;48.274;12.292;2024-03-08T13:55:06;9.90;99.90
1800;DHT22;919;48.274;12.292;2024-03-08T13:57:33;9.80;99.90
1800;DHT22;919;48.274;12.292;2024-03-08T14:00:00;9.90;99.90
1800;DHT22;919;48.274;12.292;2024-03-08T14:02:28;9.80;99.90
1800;DHT22;919;48.274;12.292;2024-03-08T14:04:56;9.90;99.90
1800;DHT22;919;48.274;12.292;2024-03-08T14:07:29;9.70;99.90
1800;DHT22;919;48.274;12.292;2024-03-08T14:09:56;9.80;99.90
1800;DHT22;919;48.274;12.292;2024-03-08T14:12:25;9.80;99.90
1800;DHT22;919;48.274;12.292;2024-03-08T14:14:53;9.70;99.90
1800;DHT22;919;48.274;12.292;2024-03-08T14:17:22;9.80;99.90
1800;DHT22;919;48.274;12.292;2024-03-08T14:19:50;9.90;99.90
1800;DHT22;919;48.274;12.292;2024-03-08T14:22:18;9.90;99.90
1800;DHT22;919;48.274;12.292;2024-03-08T14:24:46;10.00;99.90
1800;DHT22;919;48.274;12.292;2024-03-08T14:27:15;10.10;99.90
1800;DHT22;919;48.274;12.292;2024-03-08T14:29:44;10.20;99.90
1800;DHT22;919;48.274;12.292;2024-03-08T14:32:12;10.20;99.90
1800;DHT22;919;48.274;12.292;2024-03-08T14:34:40;10.10;99.90
1800;DHT22;919;48.274;12.292;2024-03-08T14:37:09;10.10;99.90
1800;DHT22;919;48.274;12.292;2024-03-08T14:39:37;10.10;99.90
1800;DHT22;919;48.274;12.292;2024-03-08T14:42:06;10.10;99.90
1800;DHT22;919;48.274;12.292;2024-03-08T14:44:34;10.20;99.90
1800;DHT22;919;48.274;12.292;2024-03-08T14:47:02;10.20;99.90
1800;DHT22;919;48.274;12.292;2024-03-08T14:49:32;10.20;99.90
1800;DHT22;919;48.274;12.292;2024-03-08T14:52:02;10.10;99.90
1800;DHT22;919;48.274;12.292;2024-03-08T14:54:40;10.10;99.90
1800;DHT22;919;48.274;12.292;2024-03-08T14:57:10;10.10;99.90
1800;DHT22;919;48.274;12.292;2024-03-08T14:59:38;10.10;99.90
1800;DHT22;919;48.274;12.292;2024-03-08T15:02:05;10.10;99.90
1800;DHT22;919;48.274;12.292;2024-03-08T15:04:32;10.10;99.90
1800;DHT22;919;48.274;12.292;2024-03-08T15:07:01;10.10;99.90
1800;DHT22;919;48.274;12.292;2024-03-08T15:09:28;10.10;99.90
1800;DHT22;919;48.274;12.292;2024-03-08T15:11:55;10.10;99.90
1800;DHT22;919;48.274;12.292;2024-03-08T15:14:24;10.00;99.90
1800;DHT22;919;48.274;12.292;2024-03-08T15:16:52;9.90;99.90
1800;DHT22;919;48.274;12.292;2024-03-08T15:19:20;9.80;99.90
1800;DHT22;919;48.274;12.292;2024-03-08T15:21:47;9.90;99.90
1800;DHT22;919;48.274;12.292;2024-03-08T15:24:16;9.80;99.90
1800;DHT22;919;48.274;12.292;2024-03-08T15:26:46;9.80;99.90
1800;DHT22;919;48.274;12.292;2024-03-08T15:29:16;9.90;99.90
1800;DHT22;919;48.274;12.292;2024-03-08T15:31:51;9.90;99.90
1800;DHT22;919;48.274;12.292;2024-03-08T15:34:19;9.80;99.90
1800;DHT22;919;48.274;12.292;2024-03-08T15:36:49;9.60;99.90
1800;DHT22;919;48.274;12.292;2024-03-08T15:39:17;9.60;99.90
1800;DHT22;919;48.274;12.292;2024-03-08T15:41:46;9.40;99.90
1800;DHT22;919;48.274;12.292;2024-03-08T15:44:13;9.30;99.90
1800;DHT22;919;48.274;12.292;2024-03-08T15:46:42;9.20;99.90
1800;DHT22;919;48.274;12.292;2024-03-08T15:49:11;9.10;99.90
1800;DHT22;919;48.274;12.292;2024-03-08T15:51:38;9.00;99.90
1800;DHT22;919;48.274;12.292;2024-03-08T15:54:06;9.00;99.90
1800;DHT22;919;48.274;12.292;2024-03-08T15:56:33;9.00;99.90
1800;DHT22;919;48.274;12.292;2024-03-08T15:59:01;8.90;99.90
1800;DHT22;919;48.274;12.292;2024-03-08T16:01:31;8.80;99.90
1800;DHT22;919;48.274;12.292;2024-03-08T16:03:59;8.80;99.90
1800;DHT22;919;48.274;12.292;2024-03-08T16:06:29;8.80;99.90
1800;DHT22;919;48.274;12.292;2024-03-08T16:08:56;8.80;99.90
1800;DHT22;919;48.274;12.292;2024-03-08T16:11:24;8.80;99.90
1800;DHT22;919;48.274;12.292;2024-03-08T16:13:53;9.00;99.90
1800;DHT22;919;48.274;12.292;2024-03-08T16:16:22;9.20;99.90
1800;DHT22;919;48.274;12.292;2024-03-08T16:18:48;9.80;99.90
1800;DHT22;919;48.274;12.292;2024-03-08T16:21:15;10.20;99.90
1800;DHT22;919;48.274;12.292;2024-03-08T16:23:43;10.40;99.90